Time;durP1;ratioP1;P1;durP2;ratioP2;P2;SDS_P1;SDS_P2;PMS_P1;PMS_P2;Temp;Humidity;BMP_temperature;BMP_pressure;BME280_temperature;BME280_humidity;BME280_pressure;Samples;Min_cycle;Max_cycle;Signal;HPM_P1;HPM_P2
2022/05/15 00:01:04;;;;;;;21.62;7.95;;;;;;;10.79;61.36;100997.80;1787287;80;21104;-72
2022/05/15 00:03:30;;;;;;;16.02;6.83;;;;;;;10.83;61.50;101005.83;1784553;80;21018;-73
2022/05/15 00:06:00;;;;;;;16.82;7.35;;;;;;;10.82;61.60;101004.14;1787307;79;21691;-72
2022/05/15 00:08:26;;;;;;;;;;;;;;;10.79;61.72;100999.13;1788249;80;21162;-72
2022/05/15 00:10:53;;;;;;;12.28;6.28;;;;;;;10.77;61.84;101003.77;1773744;80;20172;-72
2022/05/15 00:13:19;;;;;;;14.05;6.22;;;;;;;10.74;61.92;101009.42;1757452;81;21478;-72
2022/05/15 00:15:45;;;;;;;16.07;6.25;;;;;;;10.73;62.02;101011.24;1758685;79;21531;-72
2022/05/15 00:18:11;;;;;;;12.18;5.75;;;;;;;10.75;62.10;101011.10;1787348;80;20895;-72
2022/05/15 00:20:39;;;;;;;20.57;6.70;;;;;;;10.74;62.19;101020.09;1785882;80;21402;-72
2022/05/15 00:23:08;;;;;;;19.30;5.80;;;;;;;10.73;62.26;101021.11;1786133;80;21037;-72
2022/05/15 00:25:34;;;;;;;18.67;5.25;;;;;;;10.73;62.32;101015.77;1787549;80;20990;-72
2022/05/15 00:28:00;;;;;;;18.45;5.28;;;;;;;10.72;62.38;101018.09;1786985;80;20977;-72
2022/05/15 00:30:26;;;;;;;13.80;4.55;;;;;;;10.71;62.44;101018.58;1781977;80;20865;-73
2022/05/15 00:32:52;;;;;;;14.38;3.75;;;;;;;10.72;62.46;101012.26;1783945;80;21207;-73
2022/05/15 00:35:18;;;;;;;10.50;3.90;;;;;;;10.70;62.49;101016.05;1766826;80;21006;-72
2022/05/15 00:37:44;;;;;;;13.75;4.00;;;;;;;10.66;62.51;101012.05;1766995;79;21659;-73
2022/05/15 00:40:11;;;;;;;9.30;3.98;;;;;;;10.63;62.58;101015.00;1785680;80;21557;-73
2022/05/15 00:42:37;;;;;;;14.10;5.08;;;;;;;10.58;62.60;101014.64;1786775;80;21037;-73
2022/05/15 00:45:04;;;;;;;17.55;4.92;;;;;;;10.53;62.62;101016.43;1787266;80;21066;-72
2022/05/15 00:47:30;;;;;;;14.70;4.47;;;;;;;10.47;62.68;101013.90;1787223;80;21679;-72
2022/05/15 00:49:56;;;;;;;15.30;4.25;;;;;;;10.44;62.74;101016.03;1786851;80;21032;-72
2022/05/15 00:52:27;;;;;;;15.65;4.90;;;;;;;10.39;62.79;101019.64;1783237;79;20871;-72
2022/05/15 00:55:01;;;;;;;20.12;4.60;;;;;;;10.34;62.85;101016.13;1783192;79;21550;-72
2022/05/15 00:57:35;;;;;;;12.07;3.90;;;;;;;10.30;62.91;101020.09;1783344;79;21112;-72
2022/05/15 01:00:11;;;;;;;19.67;5.42;;;;;;;10.27;62.96;101016.89;1783182;80;20997;-72
2022/05/15 01:03:05;;;;;;;14.40;5.35;;;;;;;10.22;63.05;101018.67;1761886;80;21049;-72
2022/05/15 01:05:38;;;;;;;14.15;4.15;;;;;;;10.17;63.11;101022.27;1783664;80;21057;-72
2022/05/15 01:08:04;;;;;;;10.40;4.05;;;;;;;10.13;63.19;101020.89;1783153;80;21061;-72
2022/05/15 01:10:30;;;;;;;9.80;4.40;;;;;;;10.02;63.26;101017.12;1775059;80;21067;-72
2022/05/15 01:12:58;;;;;;;14.35;5.37;;;;;;;9.99;63.38;101018.75;1735771;81;21491;-72
2022/05/15 01:15:26;;;;;;;15.32;4.95;;;;;;;9.95;63.44;101014.70;1705075;82;21338;-72
2022/05/15 01:17:52;;;;;;;11.85;4.30;;;;;;;9.91;63.51;101018.66;1734657;82;20998;-72
2022/05/15 01:20:23;;;;;;;12.45;4.65;;;;;;;9.83;63.57;101019.89;1737078;81;20988;-72
2022/05/15 01:22:49;;;;;;;11.97;4.47;;;;;;;9.75;63.68;101021.97;1733637;82;21759;-72
2022/05/15 01:25:32;;;;;;;12.40;4.47;;;;;;;9.71;63.77;101018.44;1733956;82;20992;-72
2022/05/15 01:28:19;;;;;;;14.10;3.80;;;;;;;9.67;63.82;101022.38;1736249;81;20994;-72
2022/05/15 01:30:47;;;;;;;14.40;4.35;;;;;;;9.60;63.91;101022.15;1747809;81;21593;-73
2022/05/15 01:33:13;;;;;;;12.13;4.22;;;;;;;9.49;63.98;101018.34;1764936;81;20990;-72
2022/05/15 01:35:39;;;;;;;14.38;4.08;;;;;;;9.42;64.07;101022.09;1740814;81;21085;-72
2022/05/15 01:38:06;;;;;;;13.08;4.10;;;;;;;9.36;64.14;101018.66;1733792;82;20903;-73
2022/05/15 01:40:32;;;;;;;10.85;3.92;;;;;;;9.32;64.20;101026.59;1758851;80;21098;-72
2022/05/15 01:42:59;;;;;;;10.60;4.08;;;;;;;9.32;64.25;101025.27;1765130;81;20934;-73
2022/05/15 01:45:25;;;;;;;13.30;3.60;;;;;;;9.32;64.33;101022.59;1764235;81;21097;-73
2022/05/15 01:47:51;;;;;;;13.58;3.87;;;;;;;9.36;64.41;101021.33;1764784;81;21644;-73
2022/05/15 01:50:17;;;;;;;12.63;4.40;;;;;;;9.34;64.46;101019.31;1763797;81;20903;-73
2022/05/15 01:52:43;;;;;;;9.80;3.35;;;;;;;9.31;64.56;101016.11;1784836;78;21013;-73
2022/05/15 01:55:09;;;;;;;15.45;4.62;;;;;;;9.26;64.65;101020.53;1787095;80;21108;-72
2022/05/15 01:57:35;;;;;;;14.70;4.45;;;;;;;9.26;64.73;101025.02;1787324;80;20915;-72
2022/05/15 02:00:01;;;;;;;15.18;4.08;;;;;;;9.26;64.81;101031.17;1779561;80;21458;-73
2022/05/15 02:02:27;;;;;;;10.23;3.37;;;;;;;9.26;64.87;101028.52;1787064;80;20934;-72
2022/05/15 02:04:53;;;;;;;11.45;4.35;;;;;;;9.22;64.97;101029.78;1787005;80;21014;-72
2022/05/15 02:07:19;;;;;;;10.98;3.85;;;;;;;9.20;65.03;101037.09;1787096;80;21330;-72
2022/05/15 02:09:45;;;;;;;11.15;4.17;;;;;;;9.18;65.12;101035.08;1759273;80;21064;-73
2022/05/15 02:12:11;;;;;;;12.55;3.83;;;;;;;9.14;65.20;101031.03;1763040;80;21795;-72
2022/05/15 02:14:37;;;;;;;10.88;4.08;;;;;;;9.12;65.27;101027.66;1786592;79;21068;-72
2022/05/15 02:17:04;;;;;;;13.15;4.72;;;;;;;9.11;65.36;101026.48;1779085;79;20949;-72
2022/05/15 02:19:30;;;;;;;12.75;4.22;;;;;;;9.11;65.42;101037.13;1756147;81;21108;-73
2022/05/15 02:21:55;;;;;;;14.30;4.15;;;;;;;9.09;65.48;101035.93;1761635;80;20882;-72
2022/05/15 02:24:21;;;;;;;14.78;4.08;;;;;;;9.11;65.54;101035.80;1766227;79;20922;-72
2022/05/15 02:26:47;;;;;;;12.85;3.85;;;;;;;9.08;65.61;101036.09;1771914;80;20859;-72
2022/05/15 02:29:14;;;;;;;14.98;4.30;;;;;;;9.06;65.68;101038.89;1754635;80;21007;-72
2022/05/15 02:31:40;;;;;;;15.08;5.08;;;;;;;9.07;65.72;101047.22;1779226;78;21006;-72
2022/05/15 02:34:06;;;;;;;14.05;3.95;;;;;;;9.04;65.76;101042.20;1768616;79;20903;-72
2022/05/15 02:36:32;;;;;;;9.63;3.85;;;;;;;9.00;65.81;101044.30;1787423;80;21125;-72
2022/05/15 02:38:58;;;;;;;8.70;3.67;;;;;;;8.99;65.86;101045.77;1786386;79;20870;-73
2022/05/15 02:41:24;;;;;;;9.93;3.77;;;;;;;8.94;65.92;101048.00;1779508;80;21656;-72
2022/05/15 02:43:50;;;;;;;14.43;3.87;;;;;;;8.89;65.96;101049.78;1787162;80;20870;-72
2022/05/15 02:46:16;;;;;;;11.33;3.15;;;;;;;8.85;66.01;101047.55;1786804;80;21056;-72
2022/05/15 02:51:30;;;;;;;12.55;3.37;;;;;;;8.75;66.08;101050.72;1776095;80;21069;-72
2022/05/15 02:53:56;;;;;;;19.57;4.20;;;;;;;8.75;66.14;101060.02;1753422;80;21056;-72
2022/05/15 02:56:26;;;;;;;16.62;3.60;;;;;;;8.70;66.20;101052.95;1771328;80;20942;-72
2022/05/15 02:58:52;;;;;;;7.45;2.98;;;;;;;8.66;66.26;101055.53;1783407;80;21168;-72
2022/05/15 03:01:18;;;;;;;8.38;2.98;;;;;;;8.63;66.33;101055.82;1750362;81;21274;-72
2022/05/15 03:03:44;;;;;;;19.05;3.92;;;;;;;8.61;66.39;101056.47;1732568;80;21010;-71
2022/05/15 03:06:10;;;;;;;16.25;3.62;;;;;;;8.58;66.44;101060.74;1726849;81;20903;-71
2022/05/15 03:11:03;;;;;;;10.38;3.92;;;;;;;8.49;66.63;101063.73;1694373;80;92776;-71
2022/05/15 03:13:30;;;;;;;14.38;3.62;;;;;;;8.50;66.70;101068.09;1694918;84;22420;-72
2022/05/15 03:15:56;;;;;;;10.25;3.08;;;;;;;8.48;66.75;101066.88;1706251;83;21054;-71
2022/05/15 03:18:23;;;;;;;11.83;3.65;;;;;;;8.43;66.81;101066.97;1691093;84;21469;-71
2022/05/15 03:20:50;;;;;;;14.47;3.70;;;;;;;8.42;66.91;101064.80;1690537;84;21015;-71
2022/05/15 03:23:16;;;;;;;21.87;4.65;;;;;;;8.44;67.00;101069.47;1691303;84;21552;-71
2022/05/15 03:25:42;;;;;;;23.75;6.10;;;;;;;8.41;67.02;101076.39;1650423;84;21161;-71
2022/05/15 03:28:09;;;;;;;17.77;4.50;;;;;;;8.37;67.09;101082.15;1643000;86;21048;-71
2022/05/15 03:30:39;;;;;;;19.80;4.90;;;;;;;8.36;67.24;101077.31;1665411;86;21613;-71
2022/05/15 03:33:05;;;;;;;9.88;4.05;;;;;;;8.44;67.35;101081.42;1660050;84;21101;-71
2022/05/15 03:35:32;;;;;;;18.17;3.90;;;;;;;8.46;67.41;101084.80;1616753;87;21072;-72
2022/05/15 03:37:58;;;;;;;17.82;4.62;;;;;;;8.46;67.46;101079.48;1624211;86;21112;-72
2022/05/15 03:40:24;;;;;;;16.25;5.87;;;;;;;8.47;67.49;101083.83;1633788;87;21072;-72
2022/05/15 03:42:50;;;;;;;16.80;4.83;;;;;;;8.46;67.58;101089.28;1637353;87;21076;-72
2022/05/15 03:45:16;;;;;;;18.82;6.05;;;;;;;8.47;67.67;101091.81;1639525;85;21600;-71
2022/05/15 03:47:51;;;;;;;16.87;5.65;;;;;;;8.49;67.71;101093.83;1621759;87;21705;-71
2022/05/15 03:50:17;;;;;;;13.45;4.42;;;;;;;8.62;67.79;101090.87;1636578;86;21166;-72
2022/05/15 03:52:43;;;;;;;18.90;4.78;;;;;;;9.27;68.10;101091.42;1641079;87;21133;-72
2022/05/15 03:55:09;;;;;;;11.48;4.30;;;;;;;10.71;68.37;101088.43;1621422;88;21038;-72
2022/05/15 03:57:35;;;;;;;11.18;3.55;;;;;;;12.00;68.01;101091.89;1638789;87;21073;-72
2022/05/15 04:00:02;;;;;;;12.23;3.90;;;;;;;13.18;67.46;101101.77;1652587;86;20995;-72
2022/05/15 04:02:29;;;;;;;12.20;4.05;;;;;;;15.14;66.24;101101.40;1638851;87;21797;-72
2022/05/15 04:04:55;;;;;;;12.13;4.47;;;;;;;15.14;66.24;101101.40;1652140;86;21054;-73
2022/05/15 04:07:22;;;;;;;11.25;3.60;;;;;;;16.20;65.39;101095.16;1638858;87;21104;-73
2022/05/15 04:09:49;;;;;;;10.38;3.67;;;;;;;17.04;64.55;101097.58;1640260;86;21141;-73
2022/05/15 04:12:15;;;;;;;13.13;3.47;;;;;;;17.71;63.56;101091.63;1647630;87;21536;-73
2022/05/15 04:14:42;;;;;;;11.48;3.15;;;;;;;18.09;62.48;101092.84;1636449;87;21263;-73
2022/05/15 04:17:08;;;;;;;9.58;3.72;;;;;;;18.70;61.52;101093.67;1642562;86;21040;-73
2022/05/15 04:19:36;;;;;;;9.33;4.00;;;;;;;19.34;60.28;101095.24;1647890;87;21019;-73
2022/05/15 04:22:05;;;;;;;9.18;4.00;;;;;;;19.97;59.01;101094.17;1647683;85;21965;-74
2022/05/15 04:24:33;;;;;;;8.55;3.30;;;;;;;20.49;57.75;101096.33;1682749;85;21070;-74
2022/05/15 04:27:00;;;;;;;6.87;3.07;;;;;;;20.89;56.45;101101.80;1682837;85;21150;-74
2022/05/15 04:29:26;;;;;;;9.15;3.30;;;;;;;20.96;55.21;101101.75;1682903;85;20999;-74
2022/05/15 04:31:58;;;;;;;6.00;2.85;;;;;;;21.35;54.41;101104.16;1683207;85;21561;-74
2022/05/15 04:34:26;;;;;;;6.95;2.75;;;;;;;21.71;53.40;101100.66;1682563;85;21010;-74
2022/05/15 04:36:52;;;;;;;9.73;2.90;;;;;;;21.72;52.22;101107.73;1623991;87;22017;-74
2022/05/15 04:39:18;;;;;;;5.72;2.75;;;;;;;21.57;50.78;101104.02;1621525;88;21098;-74
2022/05/15 04:41:44;;;;;;;5.15;2.52;;;;;;;21.32;49.67;101109.48;1621137;88;21055;-74
2022/05/15 04:44:10;;;;;;;9.53;2.90;;;;;;;20.68;49.40;101108.42;1634635;87;21083;-74
2022/05/15 04:46:37;;;;;;;10.23;3.33;;;;;;;19.90;49.56;101110.44;1647619;87;21012;-74
2022/05/15 04:49:04;;;;;;;9.28;3.10;;;;;;;19.27;49.78;101116.05;1647765;86;21040;-74
2022/05/15 04:51:30;;;;;;;9.93;3.33;;;;;;;18.65;49.81;101117.77;1647728;86;21176;-74
2022/05/15 04:53:56;;;;;;;9.10;3.17;;;;;;;18.25;49.88;101115.97;1629588;87;20995;-74
2022/05/15 04:56:22;;;;;;;8.75;3.00;;;;;;;18.13;49.92;101115.71;1643970;87;21036;-74
2022/05/15 04:58:48;;;;;;;11.60;3.27;;;;;;;17.90;49.91;101121.44;1621400;88;21042;-74
2022/05/15 05:01:14;;;;;;;12.93;3.12;;;;;;;17.92;49.86;101123.92;1621537;88;20928;-74
2022/05/15 05:03:40;;;;;;;5.55;2.55;;;;;;;17.74;49.81;101131.70;1623629;87;22077;-74
2022/05/15 05:06:06;;;;;;;11.75;2.85;;;;;;;17.74;49.73;101127.66;1647464;87;21064;-74
2022/05/15 05:08:33;;;;;;;8.80;3.00;;;;;;;17.53;49.73;101126.34;1644132;87;21056;-74
2022/05/15 05:10:59;;;;;;;9.25;2.70;;;;;;;17.37;49.80;101130.19;1647671;86;21064;-74
2022/05/15 05:13:25;;;;;;;7.33;2.42;;;;;;;17.33;49.84;101138.34;1647268;87;20937;-75
2022/05/15 05:15:51;;;;;;;10.00;2.90;;;;;;;17.28;49.71;101134.88;1647847;86;21191;-74
2022/05/15 05:18:17;;;;;;;9.45;3.27;;;;;;;17.15;49.76;101136.13;1647483;87;21657;-74
2022/05/15 05:20:44;;;;;;;14.18;3.83;;;;;;;17.03;49.82;101138.21;1643444;86;21029;-74
2022/05/15 05:23:11;;;;;;;14.47;3.05;;;;;;;17.03;49.89;101143.60;1636034;87;21515;-74
2022/05/15 05:25:37;;;;;;;10.43;2.70;;;;;;;17.09;49.91;101149.05;1627643;87;21036;-74
2022/05/15 05:28:04;;;;;;;8.18;3.12;;;;;;;17.12;49.93;101154.05;1622403;87;21119;-74
2022/05/15 05:30:31;;;;;;;13.05;4.67;;;;;;;17.07;50.02;101148.39;1620998;88;21127;-74
2022/05/15 05:32:57;;;;;;;10.80;3.52;;;;;;;17.12;49.97;101147.30;1621177;87;21119;-74
2022/05/15 05:35:23;;;;;;;10.08;2.95;;;;;;;17.15;50.00;101155.51;1644189;87;21024;-74
2022/05/15 05:37:50;;;;;;;7.87;3.30;;;;;;;17.17;50.09;101166.95;1624489;86;21031;-74
2022/05/15 05:40:16;;;;;;;10.70;3.60;;;;;;;17.18;50.05;101162.70;1621251;88;21152;-74
2022/05/15 05:42:42;;;;;;;6.20;2.45;;;;;;;17.31;50.08;101163.34;1621166;88;21032;-74
2022/05/15 05:45:09;;;;;;;14.43;3.08;;;;;;;17.27;50.01;101164.24;1641720;87;20929;-74
2022/05/15 05:47:35;;;;;;;12.23;3.45;;;;;;;17.29;49.89;101165.37;1646846;86;21023;-74
2022/05/15 05:50:01;;;;;;;12.98;3.52;;;;;;;17.26;49.85;101165.27;1647573;86;21020;-74
2022/05/15 05:52:27;;;;;;;9.80;2.92;;;;;;;17.26;49.86;101165.27;1647638;86;21528;-74
2022/05/15 05:54:53;;;;;;;8.65;2.40;;;;;;;17.28;49.70;101168.58;1629324;86;20926;-74
2022/05/15 05:57:19;;;;;;;9.13;3.05;;;;;;;17.20;49.69;101176.83;1626958;87;21075;-74
2022/05/15 05:59:45;;;;;;;9.20;2.90;;;;;;;17.15;49.75;101173.87;1647939;87;21096;-74
2022/05/15 06:02:11;;;;;;;9.85;3.62;;;;;;;17.20;49.68;101170.09;1646492;86;21119;-74
2022/05/15 06:04:41;;;;;;;8.18;2.80;;;;;;;17.28;49.54;101169.93;1648009;87;21155;-74
2022/05/15 06:07:24;;;;;;;9.83;2.92;;;;;;;17.34;49.61;101177.27;1634818;86;21028;-74
2022/05/15 06:09:50;;;;;;;9.53;2.90;;;;;;;17.31;49.57;101178.97;1621580;88;21085;-74
2022/05/15 06:12:19;;;;;;;13.40;3.33;;;;;;;17.43;49.54;101174.73;1642167;87;21564;-74
2022/05/15 06:14:45;;;;;;;10.20;2.30;;;;;;;17.71;49.55;101177.45;1682259;83;21034;-74
2022/05/15 06:17:11;;;;;;;9.10;2.25;;;;;;;17.80;49.37;101179.50;1683411;85;21553;-74
2022/05/15 06:19:37;;;;;;;7.83;2.60;;;;;;;17.77;49.28;101175.81;1682083;85;21018;-74
2022/05/15 06:22:04;;;;;;;9.38;2.50;;;;;;;17.82;49.23;101174.72;1695162;83;21090;-74
2022/05/15 06:24:30;;;;;;;9.88;2.40;;;;;;;17.73;48.95;101178.63;1698189;83;21542;-74
2022/05/15 06:26:59;;;;;;;8.50;2.20;;;;;;;17.58;49.01;101186.81;1711616;83;20887;-74
2022/05/15 06:29:26;;;;;;;;;;;;;;;17.83;49.08;101176.40;1714542;83;21128;-74
2022/05/15 06:31:52;;;;;;;8.30;2.55;;;;;;;17.79;48.88;101179.17;1712002;83;20176;-75
2022/05/15 06:34:18;;;;;;;6.33;2.70;;;;;;;17.71;48.88;101184.71;1693317;83;21017;-74
2022/05/15 06:36:46;;;;;;;9.70;2.83;;;;;;;17.79;49.06;101181.87;1683177;85;21034;-74
2022/05/15 06:39:12;;;;;;;5.97;1.85;;;;;;;17.88;48.98;101182.02;1682914;85;21078;-74
2022/05/15 06:41:38;;;;;;;13.22;2.60;;;;;;;17.97;49.04;101180.84;1683195;85;20915;-74
2022/05/15 06:44:05;;;;;;;6.37;2.25;;;;;;;18.17;48.97;101185.83;1682299;83;21693;-74
2022/05/15 06:46:30;;;;;;;10.40;3.02;;;;;;;18.24;48.75;101185.34;1688933;83;21122;-74
2022/05/15 06:48:57;;;;;;;8.50;2.40;;;;;;;18.11;48.64;101185.28;1712021;83;21534;-74
2022/05/15 06:51:23;;;;;;;6.08;2.27;;;;;;;18.14;48.74;101187.58;1705921;83;21002;-74
2022/05/15 06:53:49;;;;;;;8.23;2.17;;;;;;;18.14;48.60;101192.98;1682549;85;21791;-74
2022/05/15 06:59:00;;;;;;;6.12;1.98;;;;;;;18.13;48.41;101183.20;1647932;87;21558;-74
2022/05/15 07:01:26;;;;;;;7.67;2.00;;;;;;;18.09;48.25;101192.73;1625224;86;20984;-75
2022/05/15 07:03:52;;;;;;;7.20;2.25;;;;;;;18.21;48.29;101185.75;1647106;86;21058;-75
2022/05/15 07:06:18;;;;;;;5.80;1.98;;;;;;;18.29;48.06;101185.59;1647225;86;21160;-74
2022/05/15 07:08:44;;;;;;;6.92;1.65;;;;;;;18.32;48.01;101187.88;1647677;87;21003;-74
2022/05/15 07:11:10;;;;;;;7.20;1.90;;;;;;;18.42;47.85;101186.98;1653978;85;21063;-74
2022/05/15 07:13:37;;;;;;;7.15;2.30;;;;;;;18.50;47.71;101184.62;1683098;85;21526;-74
2022/05/15 07:16:03;;;;;;;7.65;2.00;;;;;;;18.59;47.66;101183.44;1680047;83;21347;-74
2022/05/15 07:18:29;;;;;;;6.00;2.05;;;;;;;18.60;47.50;101177.52;1711921;83;21943;-74
2022/05/15 07:20:55;;;;;;;7.25;1.98;;;;;;;18.63;47.38;101183.86;1711896;83;21006;-74
2022/05/15 07:23:21;;;;;;;4.97;2.30;;;;;;;18.64;47.27;101181.48;1711965;83;21696;-74
2022/05/15 07:25:48;;;;;;;11.78;2.75;;;;;;;18.65;47.13;101175.86;1705886;83;21078;-74
2022/05/15 07:28:14;;;;;;;7.22;1.95;;;;;;;18.63;47.08;101172.54;1683677;85;21555;-74
2022/05/15 07:30:40;;;;;;;4.05;1.70;;;;;;;18.92;47.01;101174.06;1683577;85;21597;-75
2022/05/15 07:33:06;;;;;;;10.70;2.40;;;;;;;19.18;46.73;101169.19;1686358;83;21015;-75
2022/05/15 07:35:33;;;;;;;7.80;2.27;;;;;;;19.10;46.50;101181.06;1689078;83;21037;-75
2022/05/15 07:40:44;;;;;;;7.50;1.60;;;;;;;19.14;46.16;101182.28;1854279;76;22690;-75
2022/05/15 07:43:11;;;;;;;8.18;1.90;;;;;;;18.99;46.04;101186.23;1826652;77;20876;-75
2022/05/15 07:45:37;;;;;;;7.35;2.10;;;;;;;19.02;46.06;101183.95;1808856;77;20935;-75
2022/05/15 07:48:04;;;;;;;7.45;1.67;;;;;;;19.10;45.99;101183.77;1825641;78;21050;-75
2022/05/15 07:50:30;;;;;;;10.15;1.40;;;;;;;19.21;45.88;101179.07;1826627;78;21026;-75
2022/05/15 07:52:56;;;;;;;5.83;2.22;;;;;;;19.15;45.65;101186.66;1826400;78;21030;-75
2022/05/15 07:55:22;;;;;;;11.90;1.85;;;;;;;19.11;45.54;101181.36;1825308;77;21022;-75
2022/05/15 07:57:49;;;;;;;6.10;1.52;;;;;;;19.17;45.48;101172.95;1826092;77;21174;-75
2022/05/15 08:00:16;;;;;;;6.37;1.90;;;;;;;19.39;45.40;101179.80;1820812;78;21101;-75
2022/05/15 08:02:43;;;;;;;5.67;1.80;;;;;;;19.54;45.24;101178.27;1784090;78;21033;-75
2022/05/15 08:08:01;;;;;;;10.03;1.95;;;;;;;19.85;45.01;101174.38;1782416;78;21640;-75
2022/05/15 08:10:33;;;;;;;11.68;2.45;;;;;;;19.95;44.82;101174.77;1796285;79;21214;-75
2022/05/15 08:13:00;;;;;;;5.20;1.57;;;;;;;20.01;44.57;101165.81;1798578;78;20982;-75
2022/05/15 08:15:26;;;;;;;6.95;1.82;;;;;;;19.86;44.35;101169.28;1809047;78;21698;-75
2022/05/15 08:17:54;;;;;;;6.25;1.87;;;;;;;19.89;44.18;101172.91;1807577;78;21645;-76
2022/05/15 08:25:48;;;;;;;6.97;1.70;;;;;;;20.11;43.67;101170.26;1766517;79;21003;-76
2022/05/15 08:28:15;;;;;;;5.65;1.40;;;;;;;20.15;43.47;101174.72;1802334;78;21096;-75
2022/05/15 08:30:41;;;;;;;5.37;1.22;;;;;;;20.11;43.33;101174.32;1796140;78;21506;-76
2022/05/15 08:33:08;;;;;;;7.15;1.67;;;;;;;20.12;43.23;101169.22;1761552;81;21005;-76
2022/05/15 08:35:34;;;;;;;5.78;1.15;;;;;;;20.01;43.05;101173.94;1792930;80;21187;-76
2022/05/15 08:38:00;;;;;;;5.62;1.40;;;;;;;20.12;43.02;101171.93;1790556;79;21037;-76
2022/05/15 08:40:31;;;;;;;6.75;1.30;;;;;;;20.27;42.88;101171.16;1795038;79;20957;-76
2022/05/15 08:42:57;;;;;;;3.47;1.00;;;;;;;20.26;42.71;101174.91;1773304;80;21010;-76
2022/05/15 08:45:26;;;;;;;4.60;1.55;;;;;;;20.20;42.57;101171.67;1774021;80;20895;-76
2022/05/15 08:48:06;;;;;;;5.22;1.52;;;;;;;20.25;42.47;101175.94;1790885;79;21129;-75
2022/05/15 08:50:48;;;;;;;2.45;0.90;;;;;;;20.26;42.20;101171.35;1760444;81;20990;-76
2022/05/15 08:53:30;;;;;;;4.10;0.98;;;;;;;20.02;41.86;101180.19;1813816;79;20979;-75
2022/05/15 08:55:59;;;;;;;6.05;1.00;;;;;;;20.08;41.93;101182.03;1813272;79;20975;-76
2022/05/15 08:58:44;;;;;;;6.97;1.22;;;;;;;20.30;41.86;101186.17;1787210;80;20999;-75
2022/05/15 09:01:12;;;;;;;2.35;1.35;;;;;;;20.29;41.70;101182.63;1790760;78;21146;-76
2022/05/15 09:03:38;;;;;;;4.80;1.10;;;;;;;20.16;41.32;101188.03;1774054;80;21002;-75
2022/05/15 09:06:40;;;;;;;5.08;1.55;;;;;;;20.09;41.03;101188.58;1774892;80;21088;-75
2022/05/15 09:09:43;;;;;;;5.37;0.98;;;;;;;20.05;40.86;101187.88;1786579;80;21024;-75
2022/05/15 09:12:21;;;;;;;5.10;1.10;;;;;;;19.86;40.57;101178.75;1743758;82;21529;-75
2022/05/15 09:15:04;;;;;;;7.60;1.50;;;;;;;19.82;40.36;101179.70;1743721;80;21142;-75
2022/05/15 09:17:44;;;;;;;2.00;0.80;;;;;;;19.86;40.22;101189.58;1768626;80;21066;-75
2022/05/15 09:20:22;;;;;;;2.45;0.90;;;;;;;19.81;40.07;101186.66;1784868;79;21055;-75
2022/05/15 09:23:10;;;;;;;3.37;1.12;;;;;;;19.83;39.92;101179.19;1787007;79;21021;-75
2022/05/15 09:25:36;;;;;;;3.22;1.00;;;;;;;19.81;39.66;101178.55;1769741;79;21537;-75
2022/05/15 09:28:10;;;;;;;4.50;1.85;;;;;;;19.83;39.65;101181.89;1763720;79;21099;-75
2022/05/15 09:30:43;;;;;;;3.30;0.80;;;;;;;19.87;39.62;101183.13;1771169;79;21048;-76
2022/05/15 09:33:32;;;;;;;5.92;1.32;;;;;;;19.88;39.70;101182.07;1778448;79;21056;-75
2022/05/15 09:36:23;;;;;;;;;;;;;;;20.01;39.71;101180.70;1776360;79;21624;-75
2022/05/15 09:38:52;;;;;;;2.70;0.93;;;;;;;20.00;39.58;101184.45;1752534;79;20180;-75
2022/05/15 09:44:27;;;;;;;4.60;0.95;;;;;;;19.96;39.50;101168.31;1835391;77;21026;-75
2022/05/15 09:47:03;;;;;;;7.45;1.50;;;;;;;20.09;39.32;101170.97;1857938;77;21526;-75
2022/05/15 09:49:33;;;;;;;2.50;0.80;;;;;;;20.06;39.26;101175.47;1857885;77;21050;-75
2022/05/15 09:52:01;;;;;;;3.37;0.90;;;;;;;20.23;39.35;101173.95;1846126;77;20986;-75
2022/05/15 09:54:41;;;;;;;3.65;1.20;;;;;;;20.27;39.28;101169.80;1792690;78;21542;-75
2022/05/15 09:57:18;;;;;;;4.05;1.17;;;;;;;20.26;39.24;101169.48;1798894;78;21006;-75
2022/05/15 09:59:59;;;;;;;5.47;1.17;;;;;;;20.21;39.12;101165.73;1798349;78;21040;-75
2022/05/15 10:02:44;;;;;;;4.08;1.37;;;;;;;20.14;38.92;101171.18;1807961;78;21088;-75
2022/05/15 10:05:25;;;;;;;3.12;0.98;;;;;;;20.02;38.94;101175.58;1813961;78;21056;-75
2022/05/15 10:08:02;;;;;;;3.35;1.17;;;;;;;20.14;38.92;101167.63;1791762;80;21797;-76
2022/05/15 10:10:37;;;;;;;4.25;1.30;;;;;;;20.13;38.75;101174.92;1794044;78;21048;-75
2022/05/15 10:13:11;;;;;;;2.30;1.02;;;;;;;20.02;38.22;101167.45;1796938;78;21018;-74
2022/05/15 10:15:41;;;;;;;5.65;1.15;;;;;;;20.10;38.17;101168.58;1791278;78;21077;-75
2022/05/15 10:18:11;;;;;;;3.30;1.00;;;;;;;20.03;37.88;101166.42;1791961;80;21009;-75
2022/05/15 10:20:39;;;;;;;2.47;0.90;;;;;;;20.01;37.93;101161.75;1768980;80;21994;-75
2022/05/15 10:23:18;;;;;;;5.10;1.42;;;;;;;20.04;37.97;101163.20;1792743;78;21532;-75
2022/05/15 10:25:59;;;;;;;4.35;1.25;;;;;;;20.06;37.98;101155.16;1768236;80;20990;-75
2022/05/15 10:28:47;;;;;;;6.33;0.98;;;;;;;20.05;38.04;101158.94;1791761;80;20993;-75
2022/05/15 10:31:27;;;;;;;4.33;1.10;;;;;;;20.12;38.02;101153.48;1823056;78;21065;-75
2022/05/15 10:33:57;;;;;;;2.40;0.90;;;;;;;20.04;37.92;101147.78;1797460;78;21620;-75
2022/05/15 10:36:35;;;;;;;1.77;0.72;;;;;;;20.13;37.73;101153.26;1791140;80;21076;-75
2022/05/15 10:39:24;;;;;;;5.33;0.90;;;;;;;20.22;37.60;101154.70;1790490;80;21068;-75
2022/05/15 10:42:10;;;;;;;1.17;0.30;;;;;;;20.26;37.48;101151.87;1790848;78;21040;-75
2022/05/15 10:45:02;;;;;;;3.12;1.00;;;;;;;20.36;37.32;101149.56;1798105;78;21021;-75
2022/05/15 10:47:34;;;;;;;2.80;1.15;;;;;;;20.39;37.07;101145.58;1823990;78;21921;-75
2022/05/15 10:50:26;;;;;;;4.72;1.02;;;;;;;20.40;36.96;101141.31;1793294;78;21058;-75
2022/05/15 10:57:29;;;;;;;2.52;0.82;;;;;;;20.55;36.76;101140.20;1792524;78;21530;-75
2022/05/15 11:00:13;;;;;;;3.50;0.88;;;;;;;20.74;36.75;101136.52;1800811;77;21021;-74
2022/05/15 11:03:09;;;;;;;3.52;0.98;;;;;;;20.67;36.39;101127.60;1765491;78;21157;-74
2022/05/15 11:05:47;;;;;;;6.40;1.10;;;;;;;20.77;36.27;101129.30;1802716;78;21018;-75
2022/05/15 11:09:00;;;;;;;4.17;0.70;;;;;;;20.67;36.00;101128.95;1813505;78;21042;-75
2022/05/15 11:11:48;;;;;;;2.52;0.90;;;;;;;20.47;35.78;101129.08;1796217;78;20994;-75
2022/05/15 11:14:28;;;;;;;2.30;0.80;;;;;;;20.41;35.68;101126.70;1791863;78;21017;-75
2022/05/15 11:17:43;;;;;;;3.27;0.82;;;;;;;20.33;35.50;101118.01;1796270;78;21485;-75
2022/05/15 11:20:19;;;;;;;4.78;1.20;;;;;;;20.46;35.45;101114.38;1744664;81;21050;-75
2022/05/15 11:22:50;;;;;;;2.62;0.65;;;;;;;20.23;35.17;101120.32;1762116;80;21024;-75
2022/05/15 11:25:27;;;;;;;2.22;0.80;;;;;;;20.12;35.18;101113.70;1772342;78;21495;-75
2022/05/15 11:28:06;;;;;;;2.80;1.00;;;;;;;20.15;35.17;101108.36;1764140;80;21040;-75
2022/05/15 11:30:38;;;;;;;;;;;;;;;20.31;35.20;101103.31;1795239;80;21045;-75
2022/05/15 11:33:10;;;;;;;2.98;0.60;;;;;;;20.29;35.01;101098.64;1765048;80;20181;-75
2022/05/15 11:35:41;;;;;;;3.10;0.95;;;;;;;20.32;35.08;101104.98;1787838;80;21041;-75
2022/05/15 11:38:19;;;;;;;4.83;0.68;;;;;;;20.40;35.08;101100.67;1792342;80;21041;-75
2022/05/15 11:40:50;;;;;;;6.92;0.78;;;;;;;20.49;35.04;101097.69;1794020;79;20994;-75
2022/05/15 11:43:33;;;;;;;6.65;0.78;;;;;;;20.37;34.93;101095.66;1795124;79;21917;-75
2022/05/15 11:46:04;;;;;;;3.35;0.60;;;;;;;20.43;34.92;101088.05;1795539;79;21033;-75
2022/05/15 11:48:41;;;;;;;4.03;0.78;;;;;;;20.55;34.78;101094.13;1795651;79;21056;-75
2022/05/15 11:51:20;;;;;;;3.95;0.80;;;;;;;20.52;34.62;101089.95;1795441;80;21044;-75
2022/05/15 11:54:05;;;;;;;1.80;0.88;;;;;;;20.59;34.63;101087.20;1795759;79;21033;-75
2022/05/15 11:56:53;;;;;;;1.72;0.50;;;;;;;20.71;34.57;101082.75;1768974;80;21458;-75
2022/05/15 11:59:28;;;;;;;5.87;0.75;;;;;;;20.69;34.36;101082.15;1795703;79;20997;-75
2022/05/15 12:02:14;;;;;;;2.87;0.80;;;;;;;20.63;34.34;101080.29;1795751;79;21057;-75
2022/05/15 12:04:54;;;;;;;3.22;0.78;;;;;;;20.67;34.27;101085.06;1791594;80;21033;-75